Terminal Aerodrome Forecast
Issued by NWS

Home | Current Version | Previous Version | Text Only | Print | Product List | Glossary On
Versions: 1 2 3 4 5 6 7 8 9 10 11 12 13 14 15 16 17 18 19 20 21
000
FTUS41 KPBZ 260500
TAFAGC
TAF
KAGC 260528Z 2606/2706 VRB04KT P6SM BKN100
      TEMPO 2606/2607 -SHRA
     FM261800 22009KT P6SM SCT050 BKN080
     FM270400 22004KT P6SM VCSH BKN050=

USA.gov is the U.S. government's official web portal to all federal, state and local government web resources and services.